createdAt,value
2023-03-26T00:01:24.566Z,2.87
2023-03-26T00:03:57.982Z,2.57
2023-03-26T00:06:28.894Z,2.80
2023-03-26T00:08:57.803Z,3.23
2023-03-26T00:11:27.893Z,4.60
2023-03-26T00:13:59.051Z,2.17
2023-03-26T00:16:31.303Z,2.73
2023-03-26T00:18:59.947Z,4.23
2023-03-26T00:21:28.686Z,2.60
2023-03-26T00:24:00.393Z,2.60
2023-03-26T00:26:29.618Z,2.23
2023-03-26T00:28:57.578Z,2.53
2023-03-26T00:31:24.345Z,2.33
2023-03-26T00:33:55.604Z,2.73
2023-03-26T00:36:25.745Z,2.73
2023-03-26T00:38:54.081Z,2.33
2023-03-26T00:41:25.760Z,2.63
2023-03-26T00:43:58.126Z,2.00
2023-03-26T00:46:26.566Z,2.53
2023-03-26T00:48:53.372Z,3.10
2023-03-26T00:51:21.326Z,2.90
2023-03-26T00:53:49.836Z,2.63
2023-03-26T00:56:16.834Z,2.90
2023-03-26T00:58:43.840Z,3.40
2023-03-26T01:01:14.119Z,2.83
2023-03-26T01:03:50.383Z,2.80
2023-03-26T01:06:27.924Z,2.90
2023-03-26T01:09:00.082Z,2.73
2023-03-26T01:11:30.255Z,2.63
2023-03-26T01:14:01.030Z,2.60
2023-03-26T01:16:37.246Z,3.27
2023-03-26T01:19:16.516Z,3.03
2023-03-26T01:21:43.215Z,3.57
2023-03-26T01:24:10.413Z,3.07
2023-03-26T01:26:37.777Z,4.83
2023-03-26T01:29:08.554Z,4.00
2023-03-26T01:31:47.338Z,3.73
2023-03-26T01:34:35.298Z,3.07
2023-03-26T01:37:20.954Z,4.73
2023-03-26T01:39:57.755Z,2.90
2023-03-26T01:43:07.875Z,3.33
2023-03-26T01:45:38.368Z,2.87
2023-03-26T01:48:06.980Z,4.03
2023-03-26T01:50:33.640Z,4.70
2023-03-26T01:53:01.096Z,4.13
2023-03-26T01:55:44.556Z,3.30
2023-03-26T01:58:44.448Z,3.07
2023-03-26T02:01:30.130Z,2.70
2023-03-26T02:04:15.688Z,2.60
2023-03-26T02:06:51.734Z,2.50
2023-03-26T02:09:24.950Z,2.80
2023-03-26T02:11:51.891Z,2.80
2023-03-26T02:14:18.682Z,2.40
2023-03-26T02:16:46.982Z,2.90
2023-03-26T02:19:21.961Z,3.00
2023-03-26T02:21:51.268Z,2.03
2023-03-26T02:24:20.110Z,2.50
2023-03-26T02:26:48.277Z,3.00
2023-03-26T02:29:20.306Z,2.67
2023-03-26T02:31:48.520Z,2.70
2023-03-26T02:34:16.707Z,2.50
2023-03-26T02:36:50.129Z,2.57
2023-03-26T02:39:16.967Z,2.40
2023-03-26T02:41:51.048Z,2.50
2023-03-26T02:44:17.674Z,2.40
2023-03-26T02:46:59.343Z,2.13
2023-03-26T02:49:48.807Z,2.73
2023-03-26T02:52:23.171Z,2.73
2023-03-26T02:54:51.270Z,2.90
2023-03-26T02:57:20.245Z,2.90
2023-03-26T03:00:14.768Z,2.47
2023-03-26T03:02:50.475Z,2.30
2023-03-26T03:05:39.046Z,2.60
2023-03-26T03:08:21.469Z,2.67
2023-03-26T03:11:24.957Z,2.50
2023-03-26T03:13:53.737Z,2.73
2023-03-26T03:16:26.343Z,2.50
2023-03-26T03:18:57.845Z,2.60
2023-03-26T03:21:30.878Z,2.80
2023-03-26T03:23:59.753Z,2.87
2023-03-26T03:26:29.958Z,3.03
2023-03-26T03:29:00.315Z,2.87
2023-03-26T03:31:27.351Z,3.50
2023-03-26T03:33:59.526Z,2.77
2023-03-26T03:36:30.422Z,2.60
2023-03-26T03:39:05.223Z,2.57
2023-03-26T03:41:32.519Z,2.90
2023-03-26T03:44:01.958Z,2.90
2023-03-26T03:46:30.989Z,2.60
2023-03-26T03:48:58.044Z,2.53
2023-03-26T03:51:37.131Z,2.27
2023-03-26T03:54:10.422Z,2.80
2023-03-26T03:56:47.313Z,2.63
2023-03-26T03:59:36.598Z,2.43
2023-03-26T04:02:06.193Z,2.40
2023-03-26T04:04:40.258Z,2.87
2023-03-26T04:07:10.754Z,2.37
2023-03-26T04:10:08.305Z,2.73
2023-03-26T04:12:58.065Z,2.43
2023-03-26T04:15:41.731Z,2.53
2023-03-26T04:18:12.278Z,2.60
2023-03-26T04:20:47.162Z,2.20
2023-03-26T04:23:21.014Z,3.00
2023-03-26T04:25:54.379Z,2.57
2023-03-26T04:28:35.563Z,2.53
2023-03-26T04:31:17.275Z,2.30
2023-03-26T04:33:47.213Z,2.67
2023-03-26T04:36:16.792Z,3.00
2023-03-26T04:38:49.275Z,2.40
2023-03-26T04:41:17.773Z,2.40
2023-03-26T04:43:50.994Z,2.30
2023-03-26T04:46:55.859Z,2.67
2023-03-26T04:49:30.010Z,2.63
2023-03-26T04:51:56.819Z,2.77
2023-03-26T04:54:46.116Z,2.70
2023-03-26T04:57:21.732Z,2.20
2023-03-26T04:59:52.864Z,2.87
2023-03-26T05:02:20.243Z,2.67
2023-03-26T05:04:52.704Z,3.10
2023-03-26T05:07:24.856Z,2.50
2023-03-26T05:09:54.512Z,2.47
2023-03-26T05:12:46.475Z,2.47
2023-03-26T05:15:17.661Z,2.27
2023-03-26T05:17:50.270Z,2.30
2023-03-26T05:20:30.295Z,2.50
2023-03-26T05:22:57.351Z,2.90
2023-03-26T05:25:27.892Z,2.37
2023-03-26T05:27:55.901Z,2.90
2023-03-26T05:30:26.671Z,2.43
2023-03-26T05:32:57.960Z,2.70
2023-03-26T05:35:30.209Z,2.97
2023-03-26T05:37:57.605Z,3.03
2023-03-26T05:40:25.360Z,2.53
2023-03-26T05:42:55.790Z,2.73
2023-03-26T05:45:30.394Z,2.10
2023-03-26T05:47:59.586Z,2.97
2023-03-26T05:50:26.447Z,2.20
2023-03-26T05:52:58.188Z,2.47
2023-03-26T05:55:59.795Z,2.40
2023-03-26T05:58:44.668Z,2.20
2023-03-26T06:01:29.755Z,2.50
2023-03-26T06:04:19.474Z,2.80
2023-03-26T06:06:57.842Z,2.70
2023-03-26T06:09:24.832Z,2.50
2023-03-26T06:11:51.624Z,2.70
2023-03-26T06:14:18.309Z,2.50
2023-03-26T06:17:05.153Z,3.00
2023-03-26T06:19:51.467Z,3.27
2023-03-26T06:22:24.899Z,3.10
2023-03-26T06:25:11.779Z,2.40
2023-03-26T06:27:59.739Z,2.60
2023-03-26T06:30:50.440Z,2.60
2023-03-26T06:33:32.130Z,2.60
2023-03-26T06:35:59.818Z,3.07
2023-03-26T06:38:26.625Z,2.60
2023-03-26T06:40:53.688Z,2.63
2023-03-26T06:43:26.454Z,2.57
2023-03-26T06:46:03.566Z,2.67
2023-03-26T06:48:53.501Z,2.90
2023-03-26T06:51:20.295Z,2.87
2023-03-26T06:54:05.864Z,2.47
2023-03-26T06:56:45.175Z,2.73
2023-03-26T06:59:30.668Z,2.53
2023-03-26T07:02:15.785Z,2.93
2023-03-26T07:05:00.969Z,2.30
2023-03-26T07:07:47.554Z,2.43
2023-03-26T07:10:32.988Z,2.23
2023-03-26T07:13:11.480Z,2.30
2023-03-26T07:16:01.026Z,2.20
2023-03-26T07:18:30.436Z,2.47
2023-03-26T07:20:58.094Z,2.23
2023-03-26T07:23:29.398Z,1.90
2023-03-26T07:26:25.990Z,2.23
2023-03-26T07:29:37.605Z,1.70
2023-03-26T07:32:41.759Z,1.87
2023-03-26T07:35:50.288Z,2.10
2023-03-26T07:39:08.481Z,1.90
2023-03-26T07:42:35.762Z,1.70
2023-03-26T07:45:39.799Z,1.93
2023-03-26T07:48:25.594Z,1.73
2023-03-26T07:51:15.594Z,1.53
2023-03-26T07:53:52.678Z,1.60
2023-03-26T07:56:58.887Z,1.30
2023-03-26T07:59:56.919Z,1.40
2023-03-26T08:03:22.053Z,1.70
2023-03-26T08:06:34.014Z,1.70
2023-03-26T08:09:29.813Z,1.40
2023-03-26T08:12:16.843Z,1.40
2023-03-26T08:15:03.479Z,1.37
2023-03-26T08:17:39.492Z,1.30
2023-03-26T08:20:23.037Z,1.30
2023-03-26T08:22:56.978Z,1.30
2023-03-26T08:25:33.408Z,1.40
2023-03-26T08:28:24.210Z,2.77
2023-03-26T08:30:55.116Z,1.20
2023-03-26T08:33:25.901Z,1.90
2023-03-26T08:35:52.803Z,0.87
2023-03-26T08:38:20.566Z,1.43
2023-03-26T08:41:08.739Z,2.33
2023-03-26T08:44:13.748Z,3.80
2023-03-26T08:46:59.151Z,1.80
2023-03-26T08:49:44.319Z,1.50
2023-03-26T08:52:48.266Z,1.57
2023-03-26T08:55:22.083Z,1.37
2023-03-26T08:58:02.869Z,1.77
2023-03-26T09:00:48.827Z,1.73
2023-03-26T09:03:49.780Z,1.50
2023-03-26T09:06:36.247Z,1.43
2023-03-26T09:09:24.884Z,4.00
2023-03-26T09:12:09.806Z,5.97
2023-03-26T09:15:18.067Z,3.27
2023-03-26T09:18:21.229Z,2.83
2023-03-26T09:21:27.381Z,2.33
2023-03-26T09:24:22.636Z,1.60
2023-03-26T09:27:07.424Z,0.80
2023-03-26T09:30:13.208Z,1.80
2023-03-26T09:33:15.333Z,1.47
2023-03-26T09:35:53.166Z,3.00
2023-03-26T09:38:41.552Z,2.60
2023-03-26T09:41:16.591Z,1.80
2023-03-26T09:43:55.620Z,1.80
2023-03-26T09:46:27.983Z,1.00
2023-03-26T09:49:09.017Z,1.63
2023-03-26T09:52:12.379Z,7.23
2023-03-26T09:54:46.465Z,2.30
2023-03-26T09:57:43.622Z,2.73
2023-03-26T10:00:32.438Z,3.17
2023-03-26T10:03:13.548Z,1.93
2023-03-26T10:05:58.036Z,2.10
2023-03-26T10:08:49.484Z,1.50
2023-03-26T10:11:33.277Z,1.03
2023-03-26T10:14:21.448Z,2.20
2023-03-26T10:17:00.159Z,2.80
2023-03-26T10:19:43.016Z,1.90
2023-03-26T10:22:12.282Z,1.77
2023-03-26T10:24:47.645Z,1.60
2023-03-26T10:27:29.980Z,4.13
2023-03-26T10:30:44.188Z,2.63
2023-03-26T10:33:25.456Z,1.37
2023-03-26T10:36:07.052Z,1.90
2023-03-26T10:39:37.237Z,1.10
2023-03-26T10:42:30.497Z,1.77
2023-03-26T10:45:12.271Z,1.80
2023-03-26T10:47:50.838Z,0.80
2023-03-26T10:50:26.378Z,1.20
2023-03-26T10:52:58.432Z,0.70
2023-03-26T10:55:39.307Z,1.33
2023-03-26T10:58:18.302Z,1.70
2023-03-26T11:00:58.350Z,1.30
2023-03-26T11:03:38.734Z,1.77
2023-03-26T11:06:13.876Z,1.00
2023-03-26T11:09:18.896Z,1.20
2023-03-26T11:11:57.537Z,1.00
2023-03-26T11:14:43.176Z,1.10
2023-03-26T11:17:40.754Z,1.10
2023-03-26T11:20:30.748Z,1.10
2023-03-26T11:23:03.168Z,0.63
2023-03-26T11:25:51.186Z,1.30
2023-03-26T11:28:27.453Z,0.83
2023-03-26T11:31:01.000Z,1.60
2023-03-26T11:33:35.236Z,1.20
2023-03-26T11:36:07.313Z,0.83
2023-03-26T11:38:42.242Z,0.90
2023-03-26T11:41:23.491Z,1.37
2023-03-26T11:44:05.417Z,0.70
2023-03-26T11:46:43.806Z,0.80
2023-03-26T11:49:14.352Z,2.00
2023-03-26T11:51:42.822Z,1.13
2023-03-26T11:54:12.762Z,0.90
2023-03-26T11:56:42.095Z,1.40
2023-03-26T11:59:55.544Z,1.40
2023-03-26T12:02:34.175Z,1.00
2023-03-26T12:05:20.678Z,1.00
2023-03-26T12:08:00.031Z,1.40
2023-03-26T12:10:29.204Z,0.77
2023-03-26T12:13:00.816Z,1.10
2023-03-26T12:15:31.495Z,1.13
2023-03-26T12:17:59.887Z,0.97
2023-03-26T12:20:27.373Z,1.58
2023-03-26T12:23:00.341Z,0.90
2023-03-26T12:25:33.068Z,0.70
2023-03-26T12:28:14.027Z,1.10
2023-03-26T12:30:52.195Z,1.10
2023-03-26T12:33:28.292Z,0.93
2023-03-26T12:36:01.142Z,1.10
2023-03-26T12:38:35.982Z,0.80
2023-03-26T12:44:43.383Z,1.02
2023-03-26T12:44:55.667Z,0.90
2023-03-26T12:47:57.980Z,0.77
2023-03-26T12:50:15.831Z,1.10
2023-03-26T12:53:28.640Z,2.28
2023-03-26T12:56:08.270Z,0.80
2023-03-26T12:58:55.434Z,0.98
2023-03-26T13:01:45.954Z,0.97
2023-03-26T13:04:21.866Z,1.00
2023-03-26T13:07:01.105Z,0.70
2023-03-26T13:09:52.869Z,0.80
2023-03-26T13:12:46.428Z,0.98
2023-03-26T13:15:27.078Z,0.93
2023-03-26T13:18:08.399Z,1.05
2023-03-26T13:20:53.580Z,1.20
2023-03-26T13:23:29.777Z,1.17
2023-03-26T13:26:07.685Z,1.05
2023-03-26T13:29:07.374Z,0.85
2023-03-26T13:31:56.296Z,0.90
2023-03-26T13:34:36.715Z,0.75
2023-03-26T13:37:33.098Z,1.10
2023-03-26T13:40:26.245Z,0.90
2023-03-26T13:43:04.015Z,1.00
2023-03-26T13:45:30.581Z,0.77
2023-03-26T13:47:59.477Z,0.90
2023-03-26T13:50:34.869Z,1.25
2023-03-26T13:53:25.334Z,0.90
2023-03-26T13:55:57.559Z,1.10
2023-03-26T13:58:35.099Z,1.63
2023-03-26T14:01:18.479Z,1.02
2023-03-26T14:04:06.130Z,1.00
2023-03-26T14:06:48.787Z,0.70
2023-03-26T14:09:25.128Z,1.10
2023-03-26T14:11:58.055Z,1.77
2023-03-26T14:14:49.687Z,1.20
2023-03-26T14:17:51.428Z,2.95
2023-03-26T14:20:27.096Z,1.30
2023-03-26T14:23:27.700Z,1.42
2023-03-26T14:26:31.718Z,1.00
2023-03-26T14:29:23.688Z,0.45
2023-03-26T14:32:06.549Z,0.90
2023-03-26T14:34:42.720Z,3.22
2023-03-26T14:37:35.684Z,1.20
2023-03-26T14:40:18.210Z,0.70
2023-03-26T14:43:06.058Z,2.83
2023-03-26T14:45:44.916Z,1.73
2023-03-26T14:48:31.622Z,0.83
2023-03-26T14:51:20.293Z,0.80
2023-03-26T14:53:52.334Z,1.50
2023-03-26T14:56:42.349Z,1.30
2023-03-26T14:59:54.883Z,2.40
2023-03-26T15:02:41.442Z,1.60
2023-03-26T15:05:20.102Z,0.70
2023-03-26T15:08:08.181Z,1.60
2023-03-26T15:10:55.496Z,2.43
2023-03-26T15:13:40.771Z,1.20
2023-03-26T15:16:27.544Z,1.23
2023-03-26T15:19:25.933Z,1.30
2023-03-26T15:22:18.718Z,0.80
2023-03-26T15:24:57.603Z,1.00
2023-03-26T15:27:37.188Z,0.90
2023-03-26T15:30:35.848Z,0.90
2023-03-26T15:33:14.591Z,1.13
2023-03-26T15:35:50.201Z,0.73
2023-03-26T15:38:43.823Z,1.40
2023-03-26T15:41:24.736Z,1.30
2023-03-26T15:46:38.808Z,2.70
2023-03-26T15:49:16.424Z,0.90
2023-03-26T15:51:51.866Z,0.60
2023-03-26T15:54:28.963Z,0.70
2023-03-26T15:57:19.971Z,0.70
2023-03-26T16:00:17.856Z,0.73
2023-03-26T16:02:58.191Z,1.00
2023-03-26T16:06:03.696Z,1.53
2023-03-26T16:08:57.485Z,0.60
2023-03-26T16:11:45.575Z,1.00
2023-03-26T16:14:24.609Z,2.30
2023-03-26T16:16:57.889Z,0.90
2023-03-26T16:19:52.081Z,1.00
2023-03-26T16:22:42.420Z,2.57
2023-03-26T16:25:28.889Z,1.30
2023-03-26T16:28:33.688Z,1.07
2023-03-26T16:31:37.555Z,1.57
2023-03-26T16:34:07.148Z,0.90
2023-03-26T16:36:51.676Z,1.40
2023-03-26T16:39:22.289Z,1.40
2023-03-26T16:42:06.173Z,1.90
2023-03-26T16:45:04.192Z,1.07
2023-03-26T16:48:01.924Z,1.17
2023-03-26T16:50:43.840Z,0.73
2023-03-26T16:53:32.566Z,0.60
2023-03-26T16:56:16.796Z,1.20
2023-03-26T16:59:00.466Z,0.67
2023-03-26T17:01:55.611Z,0.83
2023-03-26T17:04:29.118Z,0.50
2023-03-26T17:07:24.095Z,0.90
2023-03-26T17:10:00.578Z,1.43
2023-03-26T17:12:44.383Z,2.80
2023-03-26T17:15:36.429Z,4.47
2023-03-26T17:18:25.725Z,4.40
2023-03-26T17:21:10.939Z,2.70
2023-03-26T17:23:58.061Z,3.17
2023-03-26T17:26:40.007Z,1.60
2023-03-26T17:29:25.755Z,1.80
2023-03-26T17:31:59.969Z,1.83
2023-03-26T17:34:46.408Z,1.67
2023-03-26T17:37:22.137Z,1.10
2023-03-26T17:40:30.524Z,1.47
2023-03-26T17:43:12.508Z,2.50
2023-03-26T17:45:43.702Z,1.90
2023-03-26T17:48:17.175Z,2.73
2023-03-26T17:50:59.277Z,3.00
2023-03-26T17:53:34.123Z,1.67
2023-03-26T17:56:04.772Z,2.53
2023-03-26T17:58:42.718Z,1.30
2023-03-26T18:01:32.214Z,1.03
2023-03-26T18:04:02.975Z,1.90
2023-03-26T18:06:32.460Z,1.43
2023-03-26T18:09:17.466Z,1.50
2023-03-26T18:12:06.327Z,1.80
2023-03-26T18:14:50.268Z,1.50
2023-03-26T18:17:17.421Z,0.70
2023-03-26T18:19:49.803Z,1.10
2023-03-26T18:22:26.590Z,0.90
2023-03-26T18:24:59.775Z,2.30
2023-03-26T18:27:34.110Z,2.60
2023-03-26T18:30:03.132Z,1.30
2023-03-26T18:32:33.218Z,1.57
2023-03-26T18:35:02.837Z,1.40
2023-03-26T18:37:38.794Z,1.10
2023-03-26T18:40:12.642Z,1.00
2023-03-26T18:42:41.477Z,1.47
2023-03-26T18:45:23.492Z,1.60
2023-03-26T18:47:54.560Z,1.43
2023-03-26T18:50:37.273Z,1.50
2023-03-26T18:53:07.205Z,1.60
2023-03-26T18:55:39.429Z,1.73
2023-03-26T18:58:25.565Z,1.63
2023-03-26T19:00:57.072Z,2.00
2023-03-26T19:03:25.187Z,1.80
2023-03-26T19:05:54.765Z,2.27
2023-03-26T19:08:23.844Z,2.10
2023-03-26T19:10:51.774Z,2.00
2023-03-26T19:13:21.483Z,1.70
2023-03-26T19:15:51.165Z,1.70
2023-03-26T19:18:22.005Z,1.80
2023-03-26T19:20:53.224Z,2.00
2023-03-26T19:23:23.074Z,2.20
2023-03-26T19:25:54.798Z,1.40
2023-03-26T19:28:35.987Z,1.33
2023-03-26T19:31:16.421Z,1.13
2023-03-26T19:33:44.351Z,1.40
2023-03-26T19:36:14.402Z,1.40
2023-03-26T19:39:05.181Z,1.30
2023-03-26T19:41:36.546Z,1.17
2023-03-26T19:44:16.026Z,1.10
2023-03-26T19:46:54.078Z,1.20
2023-03-26T19:49:32.970Z,1.20
2023-03-26T19:52:05.556Z,0.90
2023-03-26T19:54:32.392Z,0.90
2023-03-26T19:57:00.925Z,1.10
2023-03-26T19:59:27.636Z,0.90
2023-03-26T20:01:54.278Z,1.00
2023-03-26T20:04:41.318Z,1.07
2023-03-26T20:07:14.756Z,1.57
2023-03-26T20:09:43.520Z,1.40
2023-03-26T20:12:10.345Z,1.80
2023-03-26T20:14:36.939Z,1.70
2023-03-26T20:17:06.462Z,2.27
2023-03-26T20:19:33.694Z,2.07
2023-03-26T20:22:00.615Z,2.13
2023-03-26T20:24:27.770Z,2.43
2023-03-26T20:26:54.358Z,2.93
2023-03-26T20:29:21.033Z,2.80
2023-03-26T20:31:48.529Z,3.20
2023-03-26T20:34:23.811Z,3.40
2023-03-26T20:36:55.269Z,3.40
2023-03-26T20:39:23.443Z,3.67
2023-03-26T20:41:51.586Z,4.23
2023-03-26T20:44:21.041Z,4.03
2023-03-26T20:46:49.495Z,3.73
2023-03-26T20:49:17.694Z,4.07
2023-03-26T20:51:47.741Z,4.10
2023-03-26T20:54:23.577Z,3.27
2023-03-26T20:56:52.367Z,4.07
2023-03-26T20:59:28.975Z,4.17
2023-03-26T21:01:57.785Z,3.97
2023-03-26T21:04:42.641Z,4.33
2023-03-26T21:07:17.482Z,4.37
2023-03-26T21:09:46.601Z,4.60
2023-03-26T21:12:32.051Z,4.30
2023-03-26T21:14:58.969Z,4.50
2023-03-26T21:17:27.183Z,4.97
2023-03-26T21:19:54.704Z,4.23
2023-03-26T21:22:32.536Z,5.50
2023-03-26T21:25:17.138Z,5.33
2023-03-26T21:27:44.166Z,6.70
2023-03-26T21:30:16.283Z,4.53
2023-03-26T21:32:44.930Z,6.63
2023-03-26T21:35:13.648Z,6.50
2023-03-26T21:37:43.040Z,5.80
2023-03-26T21:40:16.410Z,6.23
2023-03-26T21:42:45.572Z,4.60
2023-03-26T21:45:12.982Z,5.57
2023-03-26T21:47:41.236Z,6.90
2023-03-26T21:50:09.674Z,4.13
2023-03-26T21:52:37.256Z,7.10
2023-03-26T21:55:06.555Z,6.30
2023-03-26T21:57:48.332Z,6.50
2023-03-26T22:00:23.737Z,7.20
2023-03-26T22:03:15.724Z,7.00
2023-03-26T22:05:47.694Z,7.40
2023-03-26T22:08:27.581Z,7.60
2023-03-26T22:10:54.459Z,7.57
2023-03-26T22:13:21.249Z,7.17
2023-03-26T22:15:47.917Z,6.43
2023-03-26T22:18:14.809Z,6.83
2023-03-26T22:20:43.349Z,6.50
2023-03-26T22:23:09.982Z,6.70
2023-03-26T22:25:36.549Z,6.70
2023-03-26T22:28:04.451Z,6.40
2023-03-26T22:30:32.174Z,6.63
2023-03-26T22:32:58.956Z,5.70
2023-03-26T22:35:26.652Z,5.97
2023-03-26T22:37:53.489Z,5.77
2023-03-26T22:40:27.828Z,5.80
2023-03-26T22:42:54.458Z,5.50
2023-03-26T22:45:22.648Z,5.67
2023-03-26T22:47:49.377Z,5.40
2023-03-26T22:50:16.052Z,6.73
2023-03-26T22:52:42.691Z,5.90
2023-03-26T22:55:11.086Z,5.60
2023-03-26T22:57:38.949Z,7.03
2023-03-26T23:00:19.391Z,6.67
2023-03-26T23:02:46.961Z,6.20
2023-03-26T23:05:14.733Z,7.03
2023-03-26T23:07:42.578Z,6.20
2023-03-26T23:10:11.128Z,5.30
2023-03-26T23:12:39.437Z,5.23
2023-03-26T23:15:06.867Z,5.63
2023-03-26T23:17:35.537Z,3.23
2023-03-26T23:20:06.149Z,5.00
2023-03-26T23:22:35.281Z,4.87
2023-03-26T23:25:02.037Z,5.47
2023-03-26T23:27:28.744Z,4.30
2023-03-26T23:29:55.917Z,4.70
2023-03-26T23:32:25.238Z,4.80
2023-03-26T23:34:52.625Z,4.27
2023-03-26T23:37:23.208Z,4.40
2023-03-26T23:39:53.712Z,4.73
2023-03-26T23:42:28.980Z,5.00
2023-03-26T23:44:56.964Z,5.20
2023-03-26T23:47:24.000Z,4.50
2023-03-26T23:49:51.070Z,3.97
2023-03-26T23:52:18.005Z,4.70
2023-03-26T23:54:45.144Z,4.50
2023-03-26T23:57:11.915Z,4.90
2023-03-26T23:59:38.687Z,4.30
